sensor_id;sensor_type;location;lat;lon;timestamp;pressure;altitude;pressure_sealevel;temperature;humidity
53916;BME280;39827;49.652;18.770;2023-01-28T00:02:16;96658.97;;;-2.04;89.82
53916;BME280;39827;49.652;18.770;2023-01-28T00:04:43;96653.00;;;-1.89;91.31
53916;BME280;39827;49.652;18.770;2023-01-28T00:07:08;96658.75;;;-1.94;90.15
53916;BME280;39827;49.652;18.770;2023-01-28T00:09:33;96654.69;;;-1.97;92.24
53916;BME280;39827;49.652;18.770;2023-01-28T00:11:59;96656.81;;;-2.00;90.60
53916;BME280;39827;49.652;18.770;2023-01-28T00:14:24;96649.16;;;-1.93;89.30
53916;BME280;39827;49.652;18.770;2023-01-28T00:16:49;96655.94;;;-1.92;90.47
53916;BME280;39827;49.652;18.770;2023-01-28T00:19:15;96649.97;;;-1.93;90.24
53916;BME280;39827;49.652;18.770;2023-01-28T00:21:40;96645.50;;;-1.84;91.26
53916;BME280;39827;49.652;18.770;2023-01-28T00:24:06;96647.31;;;-1.85;89.27
53916;BME280;39827;49.652;18.770;2023-01-28T00:26:33;96642.34;;;-1.94;90.83
53916;BME280;39827;49.652;18.770;2023-01-28T00:28:59;96646.09;;;-1.97;91.31
53916;BME280;39827;49.652;18.770;2023-01-28T00:31:25;96640.16;;;-2.06;89.79
53916;BME280;39827;49.652;18.770;2023-01-28T00:33:52;96642.25;;;-2.01;91.33
53916;BME280;39827;49.652;18.770;2023-01-28T00:36:20;96640.47;;;-2.01;91.81
53916;BME280;39827;49.652;18.770;2023-01-28T00:38:54;96639.47;;;-1.76;92.20
53916;BME280;39827;49.652;18.770;2023-01-28T00:41:22;96646.59;;;-1.78;89.13
53916;BME280;39827;49.652;18.770;2023-01-28T00:43:48;96653.19;;;-1.91;90.68
53916;BME280;39827;49.652;18.770;2023-01-28T00:46:14;96640.75;;;-1.95;89.88
53916;BME280;39827;49.652;18.770;2023-01-28T00:48:40;96640.28;;;-1.99;89.37
53916;BME280;39827;49.652;18.770;2023-01-28T00:51:08;96637.88;;;-2.01;90.31
53916;BME280;39827;49.652;18.770;2023-01-28T00:53:34;96655.16;;;-1.93;92.40
53916;BME280;39827;49.652;18.770;2023-01-28T00:56:01;96654.44;;;-1.87;92.57
53916;BME280;39827;49.652;18.770;2023-01-28T00:58:27;96652.44;;;-2.00;91.91
53916;BME280;39827;49.652;18.770;2023-01-28T01:00:52;96647.94;;;-2.06;92.78
53916;BME280;39827;49.652;18.770;2023-01-28T01:03:19;96652.56;;;-2.16;93.69
53916;BME280;39827;49.652;18.770;2023-01-28T01:05:45;96651.69;;;-2.08;93.05
53916;BME280;39827;49.652;18.770;2023-01-28T01:08:11;96664.72;;;-1.93;92.80
53916;BME280;39827;49.652;18.770;2023-01-28T01:10:38;96660.47;;;-1.86;93.13
53916;BME280;39827;49.652;18.770;2023-01-28T01:13:07;96667.84;;;-1.98;92.30
53916;BME280;39827;49.652;18.770;2023-01-28T01:15:32;96655.22;;;-2.01;93.39
53916;BME280;39827;49.652;18.770;2023-01-28T01:17:58;96659.06;;;-1.74;94.80
53916;BME280;39827;49.652;18.770;2023-01-28T01:20:26;96663.72;;;-1.69;92.98
53916;BME280;39827;49.652;18.770;2023-01-28T01:22:52;96655.25;;;-1.63;90.48
53916;BME280;39827;49.652;18.770;2023-01-28T01:25:18;96667.81;;;-1.75;90.29
53916;BME280;39827;49.652;18.770;2023-01-28T01:27:46;96659.81;;;-1.88;90.85
53916;BME280;39827;49.652;18.770;2023-01-28T01:30:12;96656.69;;;-1.60;92.54
53916;BME280;39827;49.652;18.770;2023-01-28T01:32:37;96658.59;;;-1.77;92.82
53916;BME280;39827;49.652;18.770;2023-01-28T01:35:04;96650.63;;;-1.76;93.36
53916;BME280;39827;49.652;18.770;2023-01-28T01:37:31;96654.56;;;-1.80;91.00
53916;BME280;39827;49.652;18.770;2023-01-28T01:39:56;96657.41;;;-1.90;92.49
53916;BME280;39827;49.652;18.770;2023-01-28T01:42:23;96666.69;;;-1.95;94.38
53916;BME280;39827;49.652;18.770;2023-01-28T01:45:12;96649.84;;;-2.00;94.63
53916;BME280;39827;49.652;18.770;2023-01-28T01:48:05;96665.88;;;-1.96;94.40
53916;BME280;39827;49.652;18.770;2023-01-28T01:50:39;96661.13;;;-1.92;94.12
53916;BME280;39827;49.652;18.770;2023-01-28T01:53:10;96663.56;;;-1.91;94.34
53916;BME280;39827;49.652;18.770;2023-01-28T01:55:39;96670.78;;;-2.01;93.31
53916;BME280;39827;49.652;18.770;2023-01-28T01:58:12;96669.03;;;-1.86;93.27
53916;BME280;39827;49.652;18.770;2023-01-28T02:00:39;96673.09;;;-1.83;93.51
53916;BME280;39827;49.652;18.770;2023-01-28T02:03:05;96667.59;;;-1.88;95.74
53916;BME280;39827;49.652;18.770;2023-01-28T02:05:31;96680.41;;;-1.87;94.68
53916;BME280;39827;49.652;18.770;2023-01-28T02:07:57;96671.94;;;-1.80;94.64
53916;BME280;39827;49.652;18.770;2023-01-28T02:10:44;96683.38;;;-1.90;93.90
53916;BME280;39827;49.652;18.770;2023-01-28T02:13:10;96681.34;;;-1.79;93.78
53916;BME280;39827;49.652;18.770;2023-01-28T02:15:35;96679.56;;;-1.79;91.01
53916;BME280;39827;49.652;18.770;2023-01-28T02:18:01;96674.81;;;-1.75;93.88
53916;BME280;39827;49.652;18.770;2023-01-28T02:33:49;96680.50;;;-1.57;93.34
53916;BME280;39827;49.652;18.770;2023-01-28T02:36:39;96672.94;;;-1.66;92.57
53916;BME280;39827;49.652;18.770;2023-01-28T02:39:17;96682.59;;;-1.75;92.87
53916;BME280;39827;49.652;18.770;2023-01-28T02:42:11;96673.94;;;-1.91;93.05
53916;BME280;39827;49.652;18.770;2023-01-28T02:44:40;96673.38;;;-2.01;94.21
53916;BME280;39827;49.652;18.770;2023-01-28T02:47:13;96671.53;;;-1.92;94.32
53916;BME280;39827;49.652;18.770;2023-01-28T02:50:00;96663.28;;;-1.96;93.15
53916;BME280;39827;49.652;18.770;2023-01-28T02:53:20;96679.25;;;-1.84;95.19
53916;BME280;39827;49.652;18.770;2023-01-28T02:55:55;96673.94;;;-1.91;92.94
53916;BME280;39827;49.652;18.770;2023-01-28T02:58:43;96680.19;;;-2.00;94.72
53916;BME280;39827;49.652;18.770;2023-01-28T03:01:25;96676.31;;;-2.04;95.10
53916;BME280;39827;49.652;18.770;2023-01-28T03:03:59;96679.56;;;-2.02;95.43
53916;BME280;39827;49.652;18.770;2023-01-28T03:06:34;96679.25;;;-1.84;95.44
53916;BME280;39827;49.652;18.770;2023-01-28T03:09:05;96670.72;;;-1.93;94.78
53916;BME280;39827;49.652;18.770;2023-01-28T03:11:51;96680.69;;;-1.81;95.28
53916;BME280;39827;49.652;18.770;2023-01-28T03:14:37;96675.59;;;-1.90;96.22
53916;BME280;39827;49.652;18.770;2023-01-28T03:20:32;96671.06;;;-1.96;94.92
53916;BME280;39827;49.652;18.770;2023-01-28T03:23:21;96675.31;;;-2.03;94.89
53916;BME280;39827;49.652;18.770;2023-01-28T03:26:07;96675.44;;;-1.97;96.71
53916;BME280;39827;49.652;18.770;2023-01-28T03:28:53;96677.25;;;-1.97;96.05
53916;BME280;39827;49.652;18.770;2023-01-28T03:31:40;96672.84;;;-1.97;97.34
53916;BME280;39827;49.652;18.770;2023-01-28T03:34:24;96672.94;;;-2.05;96.30
53916;BME280;39827;49.652;18.770;2023-01-28T03:37:08;96662.13;;;-1.93;97.61
53916;BME280;39827;49.652;18.770;2023-01-28T03:39:34;96676.97;;;-1.79;95.60
53916;BME280;39827;49.652;18.770;2023-01-28T03:42:13;96670.97;;;-1.79;95.96
53916;BME280;39827;49.652;18.770;2023-01-28T03:44:39;96666.66;;;-1.87;94.85
53916;BME280;39827;49.652;18.770;2023-01-28T03:47:15;96676.19;;;-1.88;97.22
53916;BME280;39827;49.652;18.770;2023-01-28T03:49:45;96666.22;;;-1.99;95.90
53916;BME280;39827;49.652;18.770;2023-01-28T03:52:14;96672.38;;;-2.00;93.95
53916;BME280;39827;49.652;18.770;2023-01-28T03:54:40;96676.78;;;-2.01;94.88
53916;BME280;39827;49.652;18.770;2023-01-28T03:57:06;96675.69;;;-2.06;95.51
53916;BME280;39827;49.652;18.770;2023-01-28T03:59:32;96669.69;;;-2.07;95.33
53916;BME280;39827;49.652;18.770;2023-01-28T04:01:58;96681.28;;;-1.94;96.58
53916;BME280;39827;49.652;18.770;2023-01-28T04:04:23;96675.38;;;-1.88;93.82
53916;BME280;39827;49.652;18.770;2023-01-28T04:06:51;96681.13;;;-1.93;93.09
53916;BME280;39827;49.652;18.770;2023-01-28T04:09:17;96685.81;;;-1.97;92.94
53916;BME280;39827;49.652;18.770;2023-01-28T04:11:42;96687.16;;;-2.01;94.38
53916;BME280;39827;49.652;18.770;2023-01-28T04:14:07;96700.75;;;-1.99;95.56
53916;BME280;39827;49.652;18.770;2023-01-28T04:16:33;96688.94;;;-2.01;96.33
53916;BME280;39827;49.652;18.770;2023-01-28T04:18:58;96691.31;;;-1.91;97.92
53916;BME280;39827;49.652;18.770;2023-01-28T04:21:24;96697.31;;;-1.91;96.26
53916;BME280;39827;49.652;18.770;2023-01-28T04:23:49;96699.84;;;-1.83;96.23
53916;BME280;39827;49.652;18.770;2023-01-28T04:26:15;96688.78;;;-2.00;93.92
53916;BME280;39827;49.652;18.770;2023-01-28T04:28:40;96674.19;;;-2.01;94.85
53916;BME280;39827;49.652;18.770;2023-01-28T04:31:05;96697.41;;;-1.84;95.62
53916;BME280;39827;49.652;18.770;2023-01-28T04:33:31;96704.50;;;-2.01;94.65
53916;BME280;39827;49.652;18.770;2023-01-28T04:35:56;96692.84;;;-2.05;95.77
53916;BME280;39827;49.652;18.770;2023-01-28T04:38:22;96702.66;;;-1.92;97.52
53916;BME280;39827;49.652;18.770;2023-01-28T04:40:51;96698.56;;;-1.87;95.75
53916;BME280;39827;49.652;18.770;2023-01-28T04:43:17;96709.56;;;-1.76;96.13
53916;BME280;39827;49.652;18.770;2023-01-28T04:45:44;96706.34;;;-1.87;96.48
53916;BME280;39827;49.652;18.770;2023-01-28T04:48:10;96717.56;;;-1.86;96.74
53916;BME280;39827;49.652;18.770;2023-01-28T04:50:35;96711.44;;;-1.93;95.39
53916;BME280;39827;49.652;18.770;2023-01-28T04:53:01;96712.66;;;-1.81;96.60
53916;BME280;39827;49.652;18.770;2023-01-28T04:55:26;96704.59;;;-1.86;96.71
53916;BME280;39827;49.652;18.770;2023-01-28T04:57:52;96710.66;;;-1.94;94.81
53916;BME280;39827;49.652;18.770;2023-01-28T05:00:17;96719.56;;;-1.97;95.86
53916;BME280;39827;49.652;18.770;2023-01-28T05:02:43;96709.94;;;-1.88;97.35
53916;BME280;39827;49.652;18.770;2023-01-28T05:05:08;96714.97;;;-1.86;94.63
53916;BME280;39827;49.652;18.770;2023-01-28T05:07:34;96709.94;;;-1.88;95.62
53916;BME280;39827;49.652;18.770;2023-01-28T05:10:00;96716.13;;;-1.89;94.25
53916;BME280;39827;49.652;18.770;2023-01-28T05:12:25;96715.94;;;-1.87;95.84
53916;BME280;39827;49.652;18.770;2023-01-28T05:14:51;96707.84;;;-1.92;94.92
53916;BME280;39827;49.652;18.770;2023-01-28T05:17:16;96721.06;;;-2.02;95.20
53916;BME280;39827;49.652;18.770;2023-01-28T05:19:41;96712.28;;;-2.01;95.80
53916;BME280;39827;49.652;18.770;2023-01-28T05:22:08;96721.91;;;-2.10;97.14
53916;BME280;39827;49.652;18.770;2023-01-28T05:24:33;96721.84;;;-2.02;97.17
53916;BME280;39827;49.652;18.770;2023-01-28T05:26:58;96720.84;;;-2.24;96.47
53916;BME280;39827;49.652;18.770;2023-01-28T05:29:24;96721.78;;;-2.17;97.61
53916;BME280;39827;49.652;18.770;2023-01-28T05:31:49;96724.44;;;-2.02;98.05
53916;BME280;39827;49.652;18.770;2023-01-28T05:34:15;96719.63;;;-2.05;95.16
53916;BME280;39827;49.652;18.770;2023-01-28T05:36:40;96733.00;;;-1.93;97.49
53916;BME280;39827;49.652;18.770;2023-01-28T05:39:06;96727.34;;;-1.97;97.58
53916;BME280;39827;49.652;18.770;2023-01-28T05:41:32;96724.69;;;-2.12;96.80
53916;BME280;39827;49.652;18.770;2023-01-28T05:43:57;96723.28;;;-2.23;98.38
53916;BME280;39827;49.652;18.770;2023-01-28T05:46:23;96729.09;;;-2.20;97.27
53916;BME280;39827;49.652;18.770;2023-01-28T05:48:50;96726.81;;;-2.15;97.64
53916;BME280;39827;49.652;18.770;2023-01-28T05:51:15;96740.72;;;-2.08;97.27
53916;BME280;39827;49.652;18.770;2023-01-28T05:53:41;96730.84;;;-2.13;97.71
53916;BME280;39827;49.652;18.770;2023-01-28T05:56:07;96740.78;;;-1.93;99.09
53916;BME280;39827;49.652;18.770;2023-01-28T05:58:33;96728.03;;;-2.03;97.09
53916;BME280;39827;49.652;18.770;2023-01-28T06:00:58;96742.88;;;-1.88;97.37
53916;BME280;39827;49.652;18.770;2023-01-28T06:03:24;96746.72;;;-1.84;97.89
53916;BME280;39827;49.652;18.770;2023-01-28T06:05:49;96733.63;;;-1.91;97.16
53916;BME280;39827;49.652;18.770;2023-01-28T06:08:15;96745.56;;;-1.81;96.95
53916;BME280;39827;49.652;18.770;2023-01-28T06:10:42;96748.72;;;-1.86;97.27
53916;BME280;39827;49.652;18.770;2023-01-28T06:13:07;96745.50;;;-1.97;97.70
53916;BME280;39827;49.652;18.770;2023-01-28T06:15:33;96750.78;;;-1.81;97.29
53916;BME280;39827;49.652;18.770;2023-01-28T06:17:58;96761.41;;;-1.91;97.28
53916;BME280;39827;49.652;18.770;2023-01-28T06:20:24;96764.41;;;-1.79;98.77
53916;BME280;39827;49.652;18.770;2023-01-28T06:22:50;96767.06;;;-1.64;98.72
53916;BME280;39827;49.652;18.770;2023-01-28T06:25:16;96770.09;;;-1.84;96.69
53916;BME280;39827;49.652;18.770;2023-01-28T06:27:41;96784.00;;;-1.77;98.13
53916;BME280;39827;49.652;18.770;2023-01-28T06:30:07;96768.31;;;-1.84;97.89
53916;BME280;39827;49.652;18.770;2023-01-28T06:32:33;96781.00;;;-1.89;97.29
53916;BME280;39827;49.652;18.770;2023-01-28T06:34:58;96792.03;;;-1.63;99.15
53916;BME280;39827;49.652;18.770;2023-01-28T06:37:24;96789.53;;;-1.80;97.16
53916;BME280;39827;49.652;18.770;2023-01-28T06:39:50;96787.06;;;-1.73;96.39
53916;BME280;39827;49.652;18.770;2023-01-28T06:42:15;96799.38;;;-1.67;96.18
53916;BME280;39827;49.652;18.770;2023-01-28T06:44:41;96796.38;;;-1.55;97.07
53916;BME280;39827;49.652;18.770;2023-01-28T06:47:06;96788.91;;;-1.50;97.60
53916;BME280;39827;49.652;18.770;2023-01-28T06:49:33;96788.00;;;-1.66;95.12
53916;BME280;39827;49.652;18.770;2023-01-28T06:51:58;96804.28;;;-1.49;96.76
53916;BME280;39827;49.652;18.770;2023-01-28T06:54:24;96802.94;;;-1.45;96.77
53916;BME280;39827;49.652;18.770;2023-01-28T06:56:49;96805.56;;;-1.45;92.97
53916;BME280;39827;49.652;18.770;2023-01-28T06:59:15;96800.28;;;-1.60;93.91
53916;BME280;39827;49.652;18.770;2023-01-28T07:01:40;96816.97;;;-1.54;95.32
53916;BME280;39827;49.652;18.770;2023-01-28T07:04:05;96808.94;;;-1.67;94.70
53916;BME280;39827;49.652;18.770;2023-01-28T07:06:31;96808.44;;;-1.63;96.25
53916;BME280;39827;49.652;18.770;2023-01-28T07:08:57;96802.88;;;-1.60;96.41
53916;BME280;39827;49.652;18.770;2023-01-28T07:11:22;96818.59;;;-1.53;95.84
53916;BME280;39827;49.652;18.770;2023-01-28T07:13:47;96816.56;;;-1.66;94.23
53916;BME280;39827;49.652;18.770;2023-01-28T07:16:13;96815.94;;;-1.68;93.60
53916;BME280;39827;49.652;18.770;2023-01-28T07:18:38;96812.69;;;-1.70;94.54
53916;BME280;39827;49.652;18.770;2023-01-28T07:21:04;96824.72;;;-1.46;96.15
53916;BME280;39827;49.652;18.770;2023-01-28T07:23:29;96812.94;;;-1.57;94.55
53916;BME280;39827;49.652;18.770;2023-01-28T07:26:00;96825.38;;;-1.43;95.22
53916;BME280;39827;49.652;18.770;2023-01-28T07:28:26;96839.56;;;-1.54;94.37
53916;BME280;39827;49.652;18.770;2023-01-28T07:30:51;96834.56;;;-1.33;95.35
53916;BME280;39827;49.652;18.770;2023-01-28T07:33:17;96830.03;;;-1.39;94.76
53916;BME280;39827;49.652;18.770;2023-01-28T07:35:43;96842.16;;;-1.31;94.25
53916;BME280;39827;49.652;18.770;2023-01-28T07:38:08;96847.34;;;-1.31;93.33
53916;BME280;39827;49.652;18.770;2023-01-28T07:40:33;96839.09;;;-1.35;92.10
53916;BME280;39827;49.652;18.770;2023-01-28T07:42:59;96838.84;;;-1.48;93.79
53916;BME280;39827;49.652;18.770;2023-01-28T07:45:25;96845.28;;;-1.36;93.90
53916;BME280;39827;49.652;18.770;2023-01-28T07:48:12;96845.50;;;-1.22;94.01
53916;BME280;39827;49.652;18.770;2023-01-28T07:50:41;96853.69;;;-1.34;91.85
53916;BME280;39827;49.652;18.770;2023-01-28T07:53:09;96851.41;;;-1.28;93.14
53916;BME280;39827;49.652;18.770;2023-01-28T07:55:36;96850.75;;;-1.31;91.44
53916;BME280;39827;49.652;18.770;2023-01-28T07:58:03;96848.69;;;-1.35;88.70
53916;BME280;39827;49.652;18.770;2023-01-28T08:00:30;96865.25;;;-1.36;90.15
53916;BME280;39827;49.652;18.770;2023-01-28T08:03:01;96848.91;;;-1.45;90.32
53916;BME280;39827;49.652;18.770;2023-01-28T08:05:40;96853.91;;;-1.35;90.82
53916;BME280;39827;49.652;18.770;2023-01-28T08:08:08;96848.69;;;-1.12;88.76
53916;BME280;39827;49.652;18.770;2023-01-28T08:10:34;96846.78;;;-1.18;89.25
53916;BME280;39827;49.652;18.770;2023-01-28T08:12:59;96855.28;;;-1.24;88.20
53916;BME280;39827;49.652;18.770;2023-01-28T08:15:25;96856.28;;;-1.34;89.15
53916;BME280;39827;49.652;18.770;2023-01-28T08:17:53;96861.16;;;-1.31;90.69
53916;BME280;39827;49.652;18.770;2023-01-28T08:20:20;96855.31;;;-1.09;91.14
53916;BME280;39827;49.652;18.770;2023-01-28T08:22:46;96855.53;;;-1.11;89.71
53916;BME280;39827;49.652;18.770;2023-01-28T08:25:11;96860.22;;;-1.14;88.62
53916;BME280;39827;49.652;18.770;2023-01-28T08:27:37;96859.53;;;-1.32;88.23
53916;BME280;39827;49.652;18.770;2023-01-28T08:30:03;96863.19;;;-1.17;88.63
53916;BME280;39827;49.652;18.770;2023-01-28T08:32:28;96869.00;;;-1.15;89.40
53916;BME280;39827;49.652;18.770;2023-01-28T08:34:55;96866.25;;;-1.14;89.40
53916;BME280;39827;49.652;18.770;2023-01-28T08:37:20;96866.59;;;-1.17;89.84
53916;BME280;39827;49.652;18.770;2023-01-28T08:39:46;96874.22;;;-0.92;89.91
53916;BME280;39827;49.652;18.770;2023-01-28T08:42:11;96885.28;;;-0.98;88.88
53916;BME280;39827;49.652;18.770;2023-01-28T08:44:36;96880.25;;;-0.92;89.22
53916;BME280;39827;49.652;18.770;2023-01-28T08:47:02;96876.81;;;-0.92;85.27
53916;BME280;39827;49.652;18.770;2023-01-28T08:49:27;96878.16;;;-0.96;85.72
53916;BME280;39827;49.652;18.770;2023-01-28T08:51:52;96881.38;;;-0.94;86.93
53916;BME280;39827;49.652;18.770;2023-01-28T08:54:19;96887.72;;;-0.97;87.47
53916;BME280;39827;49.652;18.770;2023-01-28T08:56:45;96883.84;;;-1.01;87.25
53916;BME280;39827;49.652;18.770;2023-01-28T08:59:12;96884.34;;;-0.97;88.65
53916;BME280;39827;49.652;18.770;2023-01-28T09:01:38;96885.88;;;-0.88;90.24
53916;BME280;39827;49.652;18.770;2023-01-28T09:04:03;96885.88;;;-0.64;88.39
53916;BME280;39827;49.652;18.770;2023-01-28T09:06:29;96888.00;;;-0.68;89.00
53916;BME280;39827;49.652;18.770;2023-01-28T09:08:58;96881.00;;;-0.68;88.10
53916;BME280;39827;49.652;18.770;2023-01-28T09:11:24;96902.13;;;-0.47;86.81
53916;BME280;39827;49.652;18.770;2023-01-28T09:13:50;96885.47;;;-0.23;86.29
53916;BME280;39827;49.652;18.770;2023-01-28T09:16:16;96903.09;;;0.05;85.13
53916;BME280;39827;49.652;18.770;2023-01-28T09:18:41;96897.69;;;-0.23;83.84
53916;BME280;39827;49.652;18.770;2023-01-28T09:21:07;96892.56;;;-0.32;82.22
53916;BME280;39827;49.652;18.770;2023-01-28T09:23:34;96899.72;;;-0.34;86.49
53916;BME280;39827;49.652;18.770;2023-01-28T09:26:00;96910.59;;;-0.45;87.60
53916;BME280;39827;49.652;18.770;2023-01-28T09:28:26;96897.75;;;-0.47;85.28
53916;BME280;39827;49.652;18.770;2023-01-28T09:30:51;96902.69;;;-0.37;85.67
53916;BME280;39827;49.652;18.770;2023-01-28T09:33:17;96900.09;;;-0.37;86.59
53916;BME280;39827;49.652;18.770;2023-01-28T09:35:42;96894.66;;;-0.50;88.25
53916;BME280;39827;49.652;18.770;2023-01-28T09:38:07;96903.41;;;-0.28;87.85
53916;BME280;39827;49.652;18.770;2023-01-28T09:40:43;96888.16;;;-0.31;86.55
53916;BME280;39827;49.652;18.770;2023-01-28T09:46:07;96896.53;;;-0.21;86.18
53916;BME280;39827;49.652;18.770;2023-01-28T09:48:40;96893.75;;;-0.19;86.19
53916;BME280;39827;49.652;18.770;2023-01-28T09:51:12;96896.44;;;-0.28;85.28
53916;BME280;39827;49.652;18.770;2023-01-28T09:53:44;96897.22;;;-0.27;86.13
53916;BME280;39827;49.652;18.770;2023-01-28T09:56:17;96894.69;;;-0.35;85.87
53916;BME280;39827;49.652;18.770;2023-01-28T09:58:46;96909.28;;;-0.26;84.85
53916;BME280;39827;49.652;18.770;2023-01-28T10:01:26;96908.75;;;-0.06;84.12
53916;BME280;39827;49.652;18.770;2023-01-28T10:16:59;96901.00;;;-0.68;83.42
53916;BME280;39827;49.652;18.770;2023-01-28T10:19:36;96908.69;;;-0.36;85.89
53916;BME280;39827;49.652;18.770;2023-01-28T10:22:11;96896.75;;;-0.46;84.65
53916;BME280;39827;49.652;18.770;2023-01-28T10:24:42;96887.31;;;-0.62;85.62
53916;BME280;39827;49.652;18.770;2023-01-28T10:27:15;96900.25;;;-0.54;86.12
53916;BME280;39827;49.652;18.770;2023-01-28T10:29:41;96896.47;;;-0.51;85.70
53916;BME280;39827;49.652;18.770;2023-01-28T10:32:29;96893.44;;;-0.40;85.58
53916;BME280;39827;49.652;18.770;2023-01-28T10:34:56;96894.78;;;-0.44;84.46
53916;BME280;39827;49.652;18.770;2023-01-28T10:37:24;96905.09;;;-0.35;85.42
53916;BME280;39827;49.652;18.770;2023-01-28T10:39:51;96895.41;;;-0.42;84.93
53916;BME280;39827;49.652;18.770;2023-01-28T10:42:30;96896.84;;;-0.39;85.44
53916;BME280;39827;49.652;18.770;2023-01-28T10:45:12;96897.78;;;-0.32;86.69
53916;BME280;39827;49.652;18.770;2023-01-28T10:47:50;96891.03;;;-0.41;85.41
53916;BME280;39827;49.652;18.770;2023-01-28T10:50:21;96896.81;;;-0.54;86.33
53916;BME280;39827;49.652;18.770;2023-01-28T10:55:19;96902.09;;;-0.24;84.59
53916;BME280;39827;49.652;18.770;2023-01-28T10:57:45;96904.06;;;0.04;83.73
53916;BME280;39827;49.652;18.770;2023-01-28T11:00:20;96892.69;;;0.05;83.37
53916;BME280;39827;49.652;18.770;2023-01-28T11:02:47;96895.91;;;-0.08;83.96
53916;BME280;39827;49.652;18.770;2023-01-28T11:05:16;96900.66;;;0.19;81.56
53916;BME280;39827;49.652;18.770;2023-01-28T11:07:43;96889.81;;;0.00;83.55
53916;BME280;39827;49.652;18.770;2023-01-28T11:10:38;96895.38;;;0.12;82.83
53916;BME280;39827;49.652;18.770;2023-01-28T11:13:05;96902.63;;;0.17;81.95
53916;BME280;39827;49.652;18.770;2023-01-28T11:15:44;96883.34;;;0.11;82.70
53916;BME280;39827;49.652;18.770;2023-01-28T11:18:20;96886.19;;;0.46;83.41
53916;BME280;39827;49.652;18.770;2023-01-28T11:20:51;96887.16;;;0.45;82.63
53916;BME280;39827;49.652;18.770;2023-01-28T11:23:20;96898.31;;;0.39;82.63
53916;BME280;39827;49.652;18.770;2023-01-28T11:25:46;96892.59;;;0.14;81.96
53916;BME280;39827;49.652;18.770;2023-01-28T11:28:18;96899.06;;;0.18;82.79
53916;BME280;39827;49.652;18.770;2023-01-28T11:30:50;96887.66;;;0.04;83.37
53916;BME280;39827;49.652;18.770;2023-01-28T11:33:20;96892.69;;;0.20;84.08
53916;BME280;39827;49.652;18.770;2023-01-28T11:36:04;96891.13;;;0.26;82.99
53916;BME280;39827;49.652;18.770;2023-01-28T11:38:30;96901.00;;;0.31;82.35
53916;BME280;39827;49.652;18.770;2023-01-28T11:40:57;96899.16;;;0.24;81.56
53916;BME280;39827;49.652;18.770;2023-01-28T11:43:25;96893.38;;;0.29;82.52
53916;BME280;39827;49.652;18.770;2023-01-28T11:48:56;96888.72;;;0.76;81.17
53916;BME280;39827;49.652;18.770;2023-01-28T11:57:08;96883.97;;;0.65;81.23
53916;BME280;39827;49.652;18.770;2023-01-28T12:02:24;96897.63;;;0.67;79.16
53916;BME280;39827;49.652;18.770;2023-01-28T12:10:25;96890.75;;;0.44;79.53
53916;BME280;39827;49.652;18.770;2023-01-28T12:21:27;96896.53;;;0.09;83.74
53916;BME280;39827;49.652;18.770;2023-01-28T12:24:30;96896.97;;;-0.02;83.36
53916;BME280;39827;49.652;18.770;2023-01-28T12:27:33;96898.59;;;-0.16;83.68
53916;BME280;39827;49.652;18.770;2023-01-28T12:32:46;96901.34;;;-0.18;84.75
53916;BME280;39827;49.652;18.770;2023-01-28T12:40:58;96906.84;;;-0.28;83.76
53916;BME280;39827;49.652;18.770;2023-01-28T12:45:55;96904.25;;;-0.28;85.45
53916;BME280;39827;49.652;18.770;2023-01-28T12:48:41;96906.53;;;-0.48;83.23
53916;BME280;39827;49.652;18.770;2023-01-28T12:51:45;96913.09;;;-0.22;83.00
53916;BME280;39827;49.652;18.770;2023-01-28T12:54:15;96908.59;;;-0.43;84.42
53916;BME280;39827;49.652;18.770;2023-01-28T12:56:49;96903.16;;;-0.33;85.44
53916;BME280;39827;49.652;18.770;2023-01-28T12:59:21;96917.81;;;-0.56;83.62
53916;BME280;39827;49.652;18.770;2023-01-28T13:04:43;96910.22;;;-0.66;84.10
53916;BME280;39827;49.652;18.770;2023-01-28T13:07:12;96927.25;;;-0.78;84.93
53916;BME280;39827;49.652;18.770;2023-01-28T13:09:51;96919.63;;;-0.80;86.35
53916;BME280;39827;49.652;18.770;2023-01-28T13:12:19;96923.88;;;-0.63;86.76
53916;BME280;39827;49.652;18.770;2023-01-28T13:14:46;96930.59;;;-0.69;85.12
53916;BME280;39827;49.652;18.770;2023-01-28T13:17:27;96940.16;;;-0.46;84.18
53916;BME280;39827;49.652;18.770;2023-01-28T13:19:53;96931.19;;;-0.59;84.43
53916;BME280;39827;49.652;18.770;2023-01-28T13:24:50;96928.22;;;-0.56;87.02
53916;BME280;39827;49.652;18.770;2023-01-28T13:27:26;96933.34;;;-0.71;86.59
53916;BME280;39827;49.652;18.770;2023-01-28T13:30:21;96945.78;;;-0.81;87.56
53916;BME280;39827;49.652;18.770;2023-01-28T13:32:58;96933.59;;;-1.04;87.19
53916;BME280;39827;49.652;18.770;2023-01-28T13:35:33;96940.31;;;-1.18;89.26
53916;BME280;39827;49.652;18.770;2023-01-28T13:38:06;96947.56;;;-1.05;90.56
53916;BME280;39827;49.652;18.770;2023-01-28T13:40:33;96938.28;;;-1.31;88.63
53916;BME280;39827;49.652;18.770;2023-01-28T13:43:02;96947.88;;;-1.32;89.04
53916;BME280;39827;49.652;18.770;2023-01-28T13:45:29;96946.97;;;-1.15;90.18
53916;BME280;39827;49.652;18.770;2023-01-28T13:48:17;96944.78;;;-1.03;88.75
53916;BME280;39827;49.652;18.770;2023-01-28T13:50:46;96930.63;;;-1.24;90.00
53916;BME280;39827;49.652;18.770;2023-01-28T13:53:21;96949.53;;;-1.07;90.50
53916;BME280;39827;49.652;18.770;2023-01-28T13:55:49;96950.69;;;-1.10;90.00
53916;BME280;39827;49.652;18.770;2023-01-28T14:12:32;96955.19;;;-1.03;87.66
53916;BME280;39827;49.652;18.770;2023-01-28T14:15:24;96967.25;;;-1.11;88.88
53916;BME280;39827;49.652;18.770;2023-01-28T14:17:57;96979.25;;;-1.10;88.65
53916;BME280;39827;49.652;18.770;2023-01-28T14:20:39;96957.94;;;-1.28;88.17
53916;BME280;39827;49.652;18.770;2023-01-28T14:23:13;96973.28;;;-1.19;89.07
53916;BME280;39827;49.652;18.770;2023-01-28T14:25:48;96970.06;;;-1.21;88.01
53916;BME280;39827;49.652;18.770;2023-01-28T14:28:27;96963.41;;;-1.23;88.29
53916;BME280;39827;49.652;18.770;2023-01-28T14:31:09;96973.25;;;-1.10;87.40
53916;BME280;39827;49.652;18.770;2023-01-28T14:33:36;96969.78;;;-1.26;88.55
53916;BME280;39827;49.652;18.770;2023-01-28T14:36:03;96969.28;;;-1.29;88.27